sensor_id;sensor_type;location;lat;lon;timestamp;noise_LAeq;noise_LA_min;noise_LA_max;noise_LA01;noise_LA95
67900;Laerm;54700;51.796;10.956;2024-02-04T00:00:37;35.52;29.41;51.72;;
67900;Laerm;54700;51.796;10.956;2024-02-04T00:03:05;32.96;28.32;47.66;;
67900;Laerm;54700;51.796;10.956;2024-02-04T00:05:32;37.50;28.41;55.40;;
67900;Laerm;54700;51.796;10.956;2024-02-04T00:07:59;52.35;28.04;68.71;;
67900;Laerm;54700;51.796;10.956;2024-02-04T00:10:27;54.87;29.47;68.36;;
67900;Laerm;54700;51.796;10.956;2024-02-04T00:12:54;45.51;28.01;66.22;;
67900;Laerm;54700;51.796;10.956;2024-02-04T00:15:21;50.58;28.28;65.79;;
67900;Laerm;54700;51.796;10.956;2024-02-04T00:17:48;55.12;29.88;69.11;;
67900;Laerm;54700;51.796;10.956;2024-02-04T00:20:16;51.14;28.97;66.84;;
67900;Laerm;54700;51.796;10.956;2024-02-04T00:22:43;32.17;28.87;37.73;;
67900;Laerm;54700;51.796;10.956;2024-02-04T00:25:10;50.96;29.40;66.85;;
67900;Laerm;54700;51.796;10.956;2024-02-04T00:27:37;50.94;28.98;67.37;;
67900;Laerm;54700;51.796;10.956;2024-02-04T00:30:06;35.67;31.16;46.38;;
67900;Laerm;54700;51.796;10.956;2024-02-04T00:32:34;51.98;35.89;67.54;;
67900;Laerm;54700;51.796;10.956;2024-02-04T00:35:00;36.93;31.45;53.64;;
67900;Laerm;54700;51.796;10.956;2024-02-04T00:37:29;35.63;30.51;53.58;;
67900;Laerm;54700;51.796;10.956;2024-02-04T00:39:56;45.28;31.89;68.06;;
67900;Laerm;54700;51.796;10.956;2024-02-04T00:42:23;35.97;30.56;52.47;;
67900;Laerm;54700;51.796;10.956;2024-02-04T00:44:50;34.15;29.54;52.14;;
67900;Laerm;54700;51.796;10.956;2024-02-04T00:47:17;33.36;28.24;49.00;;
67900;Laerm;54700;51.796;10.956;2024-02-04T00:49:44;52.42;28.27;68.96;;
67900;Laerm;54700;51.796;10.956;2024-02-04T00:52:10;46.13;28.46;77.28;;
67900;Laerm;54700;51.796;10.956;2024-02-04T00:54:39;38.95;28.21;61.96;;
67900;Laerm;54700;51.796;10.956;2024-02-04T00:57:06;48.45;27.65;61.95;;
67900;Laerm;54700;51.796;10.956;2024-02-04T00:59:33;50.64;27.94;65.58;;
67900;Laerm;54700;51.796;10.956;2024-02-04T01:01:59;52.19;28.03;66.73;;
67900;Laerm;54700;51.796;10.956;2024-02-04T01:04:26;51.13;29.86;66.38;;
67900;Laerm;54700;51.796;10.956;2024-02-04T01:06:53;55.63;33.06;67.54;;
67900;Laerm;54700;51.796;10.956;2024-02-04T01:09:20;35.89;28.96;52.93;;
67900;Laerm;54700;51.796;10.956;2024-02-04T01:11:48;32.00;28.52;51.81;;
67900;Laerm;54700;51.796;10.956;2024-02-04T01:14:15;38.05;29.28;60.50;;
67900;Laerm;54700;51.796;10.956;2024-02-04T01:16:42;34.26;28.50;54.14;;
67900;Laerm;54700;51.796;10.956;2024-02-04T01:19:09;33.49;28.52;48.39;;
67900;Laerm;54700;51.796;10.956;2024-02-04T01:21:36;56.92;27.92;73.49;;
67900;Laerm;54700;51.796;10.956;2024-02-04T01:24:02;50.69;28.08;68.81;;
67900;Laerm;54700;51.796;10.956;2024-02-04T01:26:28;30.04;27.87;39.20;;
67900;Laerm;54700;51.796;10.956;2024-02-04T01:28:57;55.93;27.71;70.06;;
67900;Laerm;54700;51.796;10.956;2024-02-04T01:31:23;29.56;27.59;38.22;;
67900;Laerm;54700;51.796;10.956;2024-02-04T01:33:50;30.55;27.57;47.91;;
67900;Laerm;54700;51.796;10.956;2024-02-04T01:36:17;30.07;27.79;43.24;;
67900;Laerm;54700;51.796;10.956;2024-02-04T01:38:44;30.14;27.72;37.90;;
67900;Laerm;54700;51.796;10.956;2024-02-04T01:41:11;52.59;28.32;68.70;;
67900;Laerm;54700;51.796;10.956;2024-02-04T01:43:37;51.08;28.88;66.63;;
67900;Laerm;54700;51.796;10.956;2024-02-04T01:46:06;51.97;28.17;69.03;;
67900;Laerm;54700;51.796;10.956;2024-02-04T01:48:34;51.94;28.01;69.04;;
67900;Laerm;54700;51.796;10.956;2024-02-04T01:51:02;29.90;27.83;45.12;;
67900;Laerm;54700;51.796;10.956;2024-02-04T01:53:29;32.89;28.18;50.21;;
67900;Laerm;54700;51.796;10.956;2024-02-04T01:55:58;50.90;28.12;65.90;;
67900;Laerm;54700;51.796;10.956;2024-02-04T01:58:25;55.03;28.62;68.88;;
67900;Laerm;54700;51.796;10.956;2024-02-04T02:00:52;33.56;28.55;46.22;;
67900;Laerm;54700;51.796;10.956;2024-02-04T02:03:21;30.14;27.97;41.55;;
67900;Laerm;54700;51.796;10.956;2024-02-04T02:05:49;29.58;27.72;38.97;;
67900;Laerm;54700;51.796;10.956;2024-02-04T02:08:16;30.23;28.03;38.68;;
67900;Laerm;54700;51.796;10.956;2024-02-04T02:10:43;35.07;29.23;46.23;;
67900;Laerm;54700;51.796;10.956;2024-02-04T02:13:16;30.31;28.21;39.30;;
67900;Laerm;54700;51.796;10.956;2024-02-04T02:15:48;31.40;28.85;38.71;;
67900;Laerm;54700;51.796;10.956;2024-02-04T02:18:19;30.51;27.87;38.25;;
67900;Laerm;54700;51.796;10.956;2024-02-04T02:21:08;31.50;27.93;44.48;;
67900;Laerm;54700;51.796;10.956;2024-02-04T02:23:48;31.76;27.85;43.05;;
67900;Laerm;54700;51.796;10.956;2024-02-04T02:26:24;49.74;28.91;65.58;;
67900;Laerm;54700;51.796;10.956;2024-02-04T02:28:52;30.21;27.79;41.31;;
67900;Laerm;54700;51.796;10.956;2024-02-04T02:31:18;38.13;28.18;60.13;;
67900;Laerm;54700;51.796;10.956;2024-02-04T02:33:46;52.31;28.18;69.53;;
67900;Laerm;54700;51.796;10.956;2024-02-04T02:36:17;35.45;28.63;47.95;;
67900;Laerm;54700;51.796;10.956;2024-02-04T02:38:52;30.54;27.91;37.64;;
67900;Laerm;54700;51.796;10.956;2024-02-04T02:41:29;30.34;27.83;40.84;;
67900;Laerm;54700;51.796;10.956;2024-02-04T02:43:59;31.41;28.36;39.26;;
67900;Laerm;54700;51.796;10.956;2024-02-04T02:46:27;48.48;28.61;63.36;;
67900;Laerm;54700;51.796;10.956;2024-02-04T02:48:55;30.33;28.13;42.54;;
67900;Laerm;54700;51.796;10.956;2024-02-04T02:51:25;31.11;28.40;39.35;;
67900;Laerm;54700;51.796;10.956;2024-02-04T02:53:51;32.21;28.94;40.08;;
67900;Laerm;54700;51.796;10.956;2024-02-04T02:56:21;31.86;28.96;41.78;;
67900;Laerm;54700;51.796;10.956;2024-02-04T02:58:49;32.18;28.99;47.70;;
67900;Laerm;54700;51.796;10.956;2024-02-04T03:01:16;34.80;29.43;50.41;;
67900;Laerm;54700;51.796;10.956;2024-02-04T03:03:43;36.43;29.48;50.02;;
67900;Laerm;54700;51.796;10.956;2024-02-04T03:06:10;37.88;29.10;52.17;;
67900;Laerm;54700;51.796;10.956;2024-02-04T03:08:36;36.79;28.03;53.08;;
67900;Laerm;54700;51.796;10.956;2024-02-04T03:11:04;51.64;28.09;66.58;;
67900;Laerm;54700;51.796;10.956;2024-02-04T03:13:30;29.34;27.38;33.95;;
67900;Laerm;54700;51.796;10.956;2024-02-04T03:15:59;31.81;28.42;45.22;;
67900;Laerm;54700;51.796;10.956;2024-02-04T03:18:26;31.54;28.52;38.73;;
67900;Laerm;54700;51.796;10.956;2024-02-04T03:20:52;36.45;28.59;50.51;;
67900;Laerm;54700;51.796;10.956;2024-02-04T03:23:19;49.92;27.95;65.82;;
67900;Laerm;54700;51.796;10.956;2024-02-04T03:25:46;54.34;28.81;68.14;;
67900;Laerm;54700;51.796;10.956;2024-02-04T03:28:13;34.52;28.16;44.54;;
67900;Laerm;54700;51.796;10.956;2024-02-04T03:30:40;32.11;27.95;45.97;;
67900;Laerm;54700;51.796;10.956;2024-02-04T03:33:08;53.02;28.19;69.99;;
67900;Laerm;54700;51.796;10.956;2024-02-04T03:35:38;33.13;27.53;46.09;;
67900;Laerm;54700;51.796;10.956;2024-02-04T03:38:04;32.03;28.18;43.68;;
67900;Laerm;54700;51.796;10.956;2024-02-04T03:40:31;33.32;28.01;46.31;;
67900;Laerm;54700;51.796;10.956;2024-02-04T03:42:58;31.52;28.27;46.07;;
67900;Laerm;54700;51.796;10.956;2024-02-04T03:45:25;51.43;28.53;66.10;;
67900;Laerm;54700;51.796;10.956;2024-02-04T03:47:52;33.93;28.95;50.64;;
67900;Laerm;54700;51.796;10.956;2024-02-04T03:50:21;30.28;27.87;34.24;;
67900;Laerm;54700;51.796;10.956;2024-02-04T03:52:49;51.75;30.25;68.45;;
67900;Laerm;54700;51.796;10.956;2024-02-04T03:55:16;33.07;28.79;38.43;;
67900;Laerm;54700;51.796;10.956;2024-02-04T03:57:45;36.83;31.83;47.74;;
67900;Laerm;54700;51.796;10.956;2024-02-04T04:00:13;35.99;30.05;46.40;;
67900;Laerm;54700;51.796;10.956;2024-02-04T04:02:40;34.28;28.25;48.56;;
67900;Laerm;54700;51.796;10.956;2024-02-04T04:05:10;54.82;29.02;68.76;;
67900;Laerm;54700;51.796;10.956;2024-02-04T04:07:39;32.45;28.25;44.11;;
67900;Laerm;54700;51.796;10.956;2024-02-04T04:10:06;52.18;28.36;65.69;;
67900;Laerm;54700;51.796;10.956;2024-02-04T04:12:33;55.79;28.45;72.57;;
67900;Laerm;54700;51.796;10.956;2024-02-04T04:15:00;52.13;28.12;66.20;;
67900;Laerm;54700;51.796;10.956;2024-02-04T04:17:27;54.08;29.01;68.63;;
67900;Laerm;54700;51.796;10.956;2024-02-04T04:19:54;30.43;27.88;38.65;;
67900;Laerm;54700;51.796;10.956;2024-02-04T04:22:21;55.88;28.21;68.50;;
67900;Laerm;54700;51.796;10.956;2024-02-04T04:24:49;47.14;28.41;62.82;;
67900;Laerm;54700;51.796;10.956;2024-02-04T04:27:16;29.89;27.65;43.38;;
67900;Laerm;54700;51.796;10.956;2024-02-04T04:29:42;52.20;27.13;68.37;;
67900;Laerm;54700;51.796;10.956;2024-02-04T04:32:09;54.08;28.26;66.70;;
67900;Laerm;54700;51.796;10.956;2024-02-04T04:34:36;30.03;27.86;43.82;;
67900;Laerm;54700;51.796;10.956;2024-02-04T04:37:03;51.73;28.24;67.16;;
67900;Laerm;54700;51.796;10.956;2024-02-04T04:39:30;34.70;28.48;54.10;;
67900;Laerm;54700;51.796;10.956;2024-02-04T04:41:58;51.77;28.74;68.59;;
67900;Laerm;54700;51.796;10.956;2024-02-04T04:44:25;33.56;29.37;41.71;;
67900;Laerm;54700;51.796;10.956;2024-02-04T04:46:52;51.52;32.15;67.30;;
67900;Laerm;54700;51.796;10.956;2024-02-04T04:49:19;32.92;29.31;42.95;;
67900;Laerm;54700;51.796;10.956;2024-02-04T04:51:49;51.73;28.93;68.94;;
67900;Laerm;54700;51.796;10.956;2024-02-04T04:54:16;31.55;28.51;37.08;;
67900;Laerm;54700;51.796;10.956;2024-02-04T04:56:43;51.47;28.63;68.08;;
67900;Laerm;54700;51.796;10.956;2024-02-04T04:59:11;54.99;28.80;68.53;;
67900;Laerm;54700;51.796;10.956;2024-02-04T05:01:45;53.58;30.52;68.13;;
67900;Laerm;54700;51.796;10.956;2024-02-04T05:04:11;35.80;28.40;54.59;;
67900;Laerm;54700;51.796;10.956;2024-02-04T05:06:38;53.05;28.71;66.62;;
67900;Laerm;54700;51.796;10.956;2024-02-04T05:09:05;54.65;28.56;68.13;;
67900;Laerm;54700;51.796;10.956;2024-02-04T05:11:32;49.25;29.22;63.17;;
67900;Laerm;54700;51.796;10.956;2024-02-04T05:13:59;50.60;28.37;65.72;;
67900;Laerm;54700;51.796;10.956;2024-02-04T05:16:27;52.28;28.05;67.69;;
67900;Laerm;54700;51.796;10.956;2024-02-04T05:18:54;55.09;28.37;69.47;;
67900;Laerm;54700;51.796;10.956;2024-02-04T05:21:21;52.46;28.14;70.00;;
67900;Laerm;54700;51.796;10.956;2024-02-04T05:23:48;56.81;28.12;69.76;;
67900;Laerm;54700;51.796;10.956;2024-02-04T05:26:17;52.91;28.99;66.15;;
67900;Laerm;54700;51.796;10.956;2024-02-04T05:28:44;50.01;28.35;65.98;;
67900;Laerm;54700;51.796;10.956;2024-02-04T05:31:11;55.12;28.96;68.44;;
67900;Laerm;54700;51.796;10.956;2024-02-04T05:33:39;33.03;29.28;45.26;;
67900;Laerm;54700;51.796;10.956;2024-02-04T05:36:06;33.08;29.31;44.99;;
67900;Laerm;54700;51.796;10.956;2024-02-04T05:38:33;49.67;28.42;66.54;;
67900;Laerm;54700;51.796;10.956;2024-02-04T05:41:00;34.27;29.56;52.36;;
67900;Laerm;54700;51.796;10.956;2024-02-04T05:43:27;53.83;28.81;70.36;;
67900;Laerm;54700;51.796;10.956;2024-02-04T05:45:54;53.80;29.23;70.00;;
67900;Laerm;54700;51.796;10.956;2024-02-04T05:48:21;54.04;29.65;68.88;;
67900;Laerm;54700;51.796;10.956;2024-02-04T05:50:49;35.55;29.39;53.27;;
67900;Laerm;54700;51.796;10.956;2024-02-04T05:53:16;37.00;31.11;44.52;;
67900;Laerm;54700;51.796;10.956;2024-02-04T05:55:43;51.00;33.02;67.19;;
67900;Laerm;54700;51.796;10.956;2024-02-04T05:58:10;54.70;31.57;69.12;;
67900;Laerm;54700;51.796;10.956;2024-02-04T06:00:39;34.08;29.60;52.00;;
67900;Laerm;54700;51.796;10.956;2024-02-04T06:03:06;48.20;29.77;64.87;;
67900;Laerm;54700;51.796;10.956;2024-02-04T06:05:33;54.62;31.07;72.92;;
67900;Laerm;54700;51.796;10.956;2024-02-04T06:08:01;54.00;31.42;68.51;;
67900;Laerm;54700;51.796;10.956;2024-02-04T06:10:28;36.58;33.67;47.80;;
67900;Laerm;54700;51.796;10.956;2024-02-04T06:12:55;49.25;33.04;65.14;;
67900;Laerm;54700;51.796;10.956;2024-02-04T06:15:22;41.31;32.81;64.35;;
67900;Laerm;54700;51.796;10.956;2024-02-04T06:17:49;37.35;33.22;47.57;;
67900;Laerm;54700;51.796;10.956;2024-02-04T06:20:16;55.86;35.46;68.10;;
67900;Laerm;54700;51.796;10.956;2024-02-04T06:22:42;54.90;33.55;68.60;;
67900;Laerm;54700;51.796;10.956;2024-02-04T06:25:11;55.62;34.96;72.08;;
67900;Laerm;54700;51.796;10.956;2024-02-04T06:27:38;45.03;34.91;56.82;;
67900;Laerm;54700;51.796;10.956;2024-02-04T06:30:07;53.01;36.02;69.44;;
67900;Laerm;54700;51.796;10.956;2024-02-04T06:32:34;44.92;34.96;60.61;;
67900;Laerm;54700;51.796;10.956;2024-02-04T06:35:01;44.76;35.62;64.06;;
67900;Laerm;54700;51.796;10.956;2024-02-04T06:37:28;55.70;36.01;68.97;;
67900;Laerm;54700;51.796;10.956;2024-02-04T06:39:55;43.46;36.55;56.34;;
67900;Laerm;54700;51.796;10.956;2024-02-04T06:42:23;58.07;39.94;71.66;;
67900;Laerm;54700;51.796;10.956;2024-02-04T06:44:50;55.18;37.54;76.97;;
67900;Laerm;54700;51.796;10.956;2024-02-04T06:47:17;53.98;37.70;68.91;;
67900;Laerm;54700;51.796;10.956;2024-02-04T06:49:44;52.88;36.10;68.74;;
67900;Laerm;54700;51.796;10.956;2024-02-04T06:52:11;52.75;40.21;66.47;;
67900;Laerm;54700;51.796;10.956;2024-02-04T06:54:39;56.84;38.28;72.85;;
67900;Laerm;54700;51.796;10.956;2024-02-04T06:57:06;52.23;35.29;68.18;;
67900;Laerm;54700;51.796;10.956;2024-02-04T06:59:34;50.47;37.90;66.03;;
67900;Laerm;54700;51.796;10.956;2024-02-04T07:02:01;59.99;39.84;73.46;;
67900;Laerm;54700;51.796;10.956;2024-02-04T07:04:28;53.65;36.05;72.39;;
67900;Laerm;54700;51.796;10.956;2024-02-04T07:06:54;54.04;38.07;68.71;;
67900;Laerm;54700;51.796;10.956;2024-02-04T07:09:21;51.70;37.33;66.59;;
67900;Laerm;54700;51.796;10.956;2024-02-04T07:11:48;52.15;36.94;67.33;;
67900;Laerm;54700;51.796;10.956;2024-02-04T07:14:15;56.71;37.47;71.45;;
67900;Laerm;54700;51.796;10.956;2024-02-04T07:16:43;55.67;36.70;69.05;;
67900;Laerm;54700;51.796;10.956;2024-02-04T07:19:10;53.89;43.16;66.42;;
67900;Laerm;54700;51.796;10.956;2024-02-04T07:21:37;53.03;36.40;70.41;;
67900;Laerm;54700;51.796;10.956;2024-02-04T07:24:04;53.01;37.57;70.99;;
67900;Laerm;54700;51.796;10.956;2024-02-04T07:26:31;55.11;36.27;67.34;;
67900;Laerm;54700;51.796;10.956;2024-02-04T07:28:58;54.29;35.73;71.43;;
67900;Laerm;54700;51.796;10.956;2024-02-04T07:31:25;62.27;36.33;74.08;;
67900;Laerm;54700;51.796;10.956;2024-02-04T07:33:53;59.76;40.66;74.12;;
67900;Laerm;54700;51.796;10.956;2024-02-04T07:36:20;56.37;40.51;68.39;;
67900;Laerm;54700;51.796;10.956;2024-02-04T07:38:47;51.01;36.74;65.49;;
67900;Laerm;54700;51.796;10.956;2024-02-04T07:41:14;59.05;38.23;78.88;;
67900;Laerm;54700;51.796;10.956;2024-02-04T07:43:42;56.96;39.20;67.83;;
67900;Laerm;54700;51.796;10.956;2024-02-04T07:46:09;57.43;39.04;69.11;;
67900;Laerm;54700;51.796;10.956;2024-02-04T07:48:36;51.88;37.74;68.24;;
67900;Laerm;54700;51.796;10.956;2024-02-04T07:51:05;58.33;42.12;71.34;;
67900;Laerm;54700;51.796;10.956;2024-02-04T07:53:31;56.78;39.28;67.47;;
67900;Laerm;54700;51.796;10.956;2024-02-04T07:55:58;59.53;40.07;70.94;;
67900;Laerm;54700;51.796;10.956;2024-02-04T07:58:25;59.46;43.28;69.89;;
67900;Laerm;54700;51.796;10.956;2024-02-04T08:00:53;57.17;39.87;69.58;;
67900;Laerm;54700;51.796;10.956;2024-02-04T08:03:20;57.20;37.38;69.65;;
67900;Laerm;54700;51.796;10.956;2024-02-04T08:05:46;52.16;37.32;64.63;;
67900;Laerm;54700;51.796;10.956;2024-02-04T08:08:15;57.32;40.27;68.92;;
67900;Laerm;54700;51.796;10.956;2024-02-04T08:10:42;56.16;40.59;68.92;;
67900;Laerm;54700;51.796;10.956;2024-02-04T08:13:09;59.91;41.62;71.34;;
67900;Laerm;54700;51.796;10.956;2024-02-04T08:15:36;56.58;42.71;73.06;;
67900;Laerm;54700;51.796;10.956;2024-02-04T08:18:02;55.94;42.95;76.69;;
67900;Laerm;54700;51.796;10.956;2024-02-04T08:20:29;58.32;45.49;68.15;;
67900;Laerm;54700;51.796;10.956;2024-02-04T08:22:55;58.94;39.96;70.68;;
67900;Laerm;54700;51.796;10.956;2024-02-04T08:25:24;59.34;40.70;74.60;;
67900;Laerm;54700;51.796;10.956;2024-02-04T08:27:51;58.55;40.29;69.51;;
67900;Laerm;54700;51.796;10.956;2024-02-04T08:30:18;55.32;40.65;68.95;;
67900;Laerm;54700;51.796;10.956;2024-02-04T08:32:45;61.70;40.06;75.61;;
67900;Laerm;54700;51.796;10.956;2024-02-04T08:35:12;57.94;40.20;71.58;;
67900;Laerm;54700;51.796;10.956;2024-02-04T08:37:39;54.32;40.18;65.50;;
67900;Laerm;54700;51.796;10.956;2024-02-04T08:40:07;56.26;42.44;67.87;;
67900;Laerm;54700;51.796;10.956;2024-02-04T08:42:35;59.45;40.37;69.05;;
67900;Laerm;54700;51.796;10.956;2024-02-04T08:45:02;55.77;38.46;67.87;;
67900;Laerm;54700;51.796;10.956;2024-02-04T08:47:29;56.79;39.34;67.53;;
67900;Laerm;54700;51.796;10.956;2024-02-04T08:49:56;60.62;41.44;75.08;;
67900;Laerm;54700;51.796;10.956;2024-02-04T08:52:26;57.10;40.58;70.96;;
67900;Laerm;54700;51.796;10.956;2024-02-04T08:54:53;61.25;41.23;70.00;;
67900;Laerm;54700;51.796;10.956;2024-02-04T08:57:20;61.28;42.40;71.66;;
67900;Laerm;54700;51.796;10.956;2024-02-04T08:59:49;52.43;39.36;67.15;;
67900;Laerm;54700;51.796;10.956;2024-02-04T09:02:16;56.55;42.10;67.57;;
67900;Laerm;54700;51.796;10.956;2024-02-04T09:04:43;60.40;44.35;70.47;;
67900;Laerm;54700;51.796;10.956;2024-02-04T09:07:10;60.23;45.62;71.86;;
67900;Laerm;54700;51.796;10.956;2024-02-04T09:09:36;57.01;40.40;69.99;;
67900;Laerm;54700;51.796;10.956;2024-02-04T09:12:04;58.01;44.49;68.06;;
67900;Laerm;54700;51.796;10.956;2024-02-04T09:14:34;60.23;41.18;69.92;;
67900;Laerm;54700;51.796;10.956;2024-02-04T09:17:03;56.61;41.79;70.04;;
67900;Laerm;54700;51.796;10.956;2024-02-04T09:19:31;58.87;46.04;68.10;;
67900;Laerm;54700;51.796;10.956;2024-02-04T09:21:58;60.78;44.69;69.47;;
67900;Laerm;54700;51.796;10.956;2024-02-04T09:24:27;58.90;42.01;69.97;;
67900;Laerm;54700;51.796;10.956;2024-02-04T09:26:53;59.28;44.12;70.50;;
67900;Laerm;54700;51.796;10.956;2024-02-04T09:29:20;57.60;44.55;67.72;;
67900;Laerm;54700;51.796;10.956;2024-02-04T09:31:47;62.53;40.49;74.97;;
67900;Laerm;54700;51.796;10.956;2024-02-04T09:34:16;60.81;41.50;72.21;;
67900;Laerm;54700;51.796;10.956;2024-02-04T09:36:44;61.15;39.54;71.20;;
67900;Laerm;54700;51.796;10.956;2024-02-04T09:39:11;59.78;36.91;68.67;;
67900;Laerm;54700;51.796;10.956;2024-02-04T09:41:38;60.13;36.31;68.47;;
67900;Laerm;54700;51.796;10.956;2024-02-04T09:44:06;59.19;38.82;70.29;;
67900;Laerm;54700;51.796;10.956;2024-02-04T09:46:33;60.55;38.85;70.39;;
67900;Laerm;54700;51.796;10.956;2024-02-04T09:49:00;59.92;40.32;73.40;;
67900;Laerm;54700;51.796;10.956;2024-02-04T09:51:29;57.95;36.23;69.15;;
67900;Laerm;54700;51.796;10.956;2024-02-04T09:53:58;59.34;38.65;71.58;;
67900;Laerm;54700;51.796;10.956;2024-02-04T09:56:30;63.43;38.49;74.47;;
67900;Laerm;54700;51.796;10.956;2024-02-04T09:58:58;60.04;39.29;69.75;;
67900;Laerm;54700;51.796;10.956;2024-02-04T10:01:26;57.30;36.92;69.72;;
67900;Laerm;54700;51.796;10.956;2024-02-04T10:03:53;55.48;37.84;69.46;;
67900;Laerm;54700;51.796;10.956;2024-02-04T10:06:20;59.12;37.78;68.71;;
67900;Laerm;54700;51.796;10.956;2024-02-04T10:08:48;61.26;40.10;71.19;;
67900;Laerm;54700;51.796;10.956;2024-02-04T10:11:15;59.01;36.43;69.40;;
67900;Laerm;54700;51.796;10.956;2024-02-04T10:13:44;54.94;37.01;68.45;;
67900;Laerm;54700;51.796;10.956;2024-02-04T10:16:12;59.18;37.11;70.18;;
67900;Laerm;54700;51.796;10.956;2024-02-04T10:18:41;59.76;40.70;68.97;;
67900;Laerm;54700;51.796;10.956;2024-02-04T10:21:14;61.08;40.81;71.39;;
67900;Laerm;54700;51.796;10.956;2024-02-04T10:23:41;60.58;43.20;69.52;;
67900;Laerm;54700;51.796;10.956;2024-02-04T10:26:10;61.22;42.73;72.94;;
67900;Laerm;54700;51.796;10.956;2024-02-04T10:28:37;60.66;43.54;70.54;;
67900;Laerm;54700;51.796;10.956;2024-02-04T10:31:04;60.61;46.33;73.33;;
67900;Laerm;54700;51.796;10.956;2024-02-04T10:33:31;61.72;44.10;73.53;;
67900;Laerm;54700;51.796;10.956;2024-02-04T10:35:57;60.39;42.64;72.06;;
67900;Laerm;54700;51.796;10.956;2024-02-04T10:38:24;56.33;40.31;68.42;;
67900;Laerm;54700;51.796;10.956;2024-02-04T10:40:53;60.04;44.79;70.54;;
67900;Laerm;54700;51.796;10.956;2024-02-04T10:43:22;52.41;38.65;69.39;;
67900;Laerm;54700;51.796;10.956;2024-02-04T10:45:51;57.40;42.35;69.77;;
67900;Laerm;54700;51.796;10.956;2024-02-04T10:48:19;60.83;44.44;73.58;;
67900;Laerm;54700;51.796;10.956;2024-02-04T10:50:51;56.14;41.78;71.58;;
67900;Laerm;54700;51.796;10.956;2024-02-04T10:53:22;62.09;42.04;73.98;;
67900;Laerm;54700;51.796;10.956;2024-02-04T10:55:49;58.46;41.63;72.62;;
67900;Laerm;54700;51.796;10.956;2024-02-04T10:58:19;59.85;41.71;71.38;;
67900;Laerm;54700;51.796;10.956;2024-02-04T11:00:48;60.46;42.03;69.94;;
67900;Laerm;54700;51.796;10.956;2024-02-04T11:03:17;59.95;44.18;70.60;;
67900;Laerm;54700;51.796;10.956;2024-02-04T11:05:44;61.58;43.71;71.35;;
67900;Laerm;54700;51.796;10.956;2024-02-04T11:08:13;58.46;42.97;68.58;;
67900;Laerm;54700;51.796;10.956;2024-02-04T11:10:40;59.41;40.91;70.45;;
67900;Laerm;54700;51.796;10.956;2024-02-04T11:13:08;60.78;41.26;70.60;;
67900;Laerm;54700;51.796;10.956;2024-02-04T11:15:37;59.09;43.72;73.69;;
67900;Laerm;54700;51.796;10.956;2024-02-04T11:18:29;60.62;41.98;71.44;;
67900;Laerm;54700;51.796;10.956;2024-02-04T11:21:18;58.62;39.40;69.38;;
67900;Laerm;54700;51.796;10.956;2024-02-04T11:23:59;58.54;38.44;71.39;;
67900;Laerm;54700;51.796;10.956;2024-02-04T11:26:32;57.40;38.23;71.60;;
67900;Laerm;54700;51.796;10.956;2024-02-04T11:29:00;61.37;41.84;69.63;;
67900;Laerm;54700;51.796;10.956;2024-02-04T11:31:28;57.85;41.07;67.31;;
67900;Laerm;54700;51.796;10.956;2024-02-04T11:33:57;61.64;42.73;75.31;;
67900;Laerm;54700;51.796;10.956;2024-02-04T11:36:25;56.94;41.06;73.93;;
67900;Laerm;54700;51.796;10.956;2024-02-04T11:38:52;59.72;41.23;70.14;;
67900;Laerm;54700;51.796;10.956;2024-02-04T11:41:22;60.93;41.48;72.39;;
67900;Laerm;54700;51.796;10.956;2024-02-04T11:43:52;58.43;42.54;72.29;;
67900;Laerm;54700;51.796;10.956;2024-02-04T11:46:20;59.47;40.48;71.57;;
67900;Laerm;54700;51.796;10.956;2024-02-04T11:48:52;56.51;39.68;68.31;;
67900;Laerm;54700;51.796;10.956;2024-02-04T11:51:23;58.09;38.67;70.24;;
67900;Laerm;54700;51.796;10.956;2024-02-04T11:53:51;58.01;40.48;70.76;;
67900;Laerm;54700;51.796;10.956;2024-02-04T11:56:18;59.11;40.38;70.55;;
67900;Laerm;54700;51.796;10.956;2024-02-04T11:58:45;55.67;39.27;67.09;;
67900;Laerm;54700;51.796;10.956;2024-02-04T12:01:12;58.51;40.54;71.42;;
67900;Laerm;54700;51.796;10.956;2024-02-04T12:03:39;56.43;39.41;70.77;;
67900;Laerm;54700;51.796;10.956;2024-02-04T12:06:06;57.37;39.15;68.86;;
67900;Laerm;54700;51.796;10.956;2024-02-04T12:08:35;59.98;39.95;70.02;;
67900;Laerm;54700;51.796;10.956;2024-02-04T12:11:03;57.95;40.57;69.72;;
67900;Laerm;54700;51.796;10.956;2024-02-04T12:13:30;60.48;41.48;71.27;;
67900;Laerm;54700;51.796;10.956;2024-02-04T12:16:04;58.98;43.26;69.92;;
67900;Laerm;54700;51.796;10.956;2024-02-04T12:18:33;58.06;42.49;75.16;;
67900;Laerm;54700;51.796;10.956;2024-02-04T12:21:00;58.77;45.92;70.17;;
67900;Laerm;54700;51.796;10.956;2024-02-04T12:23:30;55.67;43.64;67.35;;
67900;Laerm;54700;51.796;10.956;2024-02-04T12:25:58;61.54;42.68;74.19;;
67900;Laerm;54700;51.796;10.956;2024-02-04T12:28:25;60.99;43.42;76.00;;
67900;Laerm;54700;51.796;10.956;2024-02-04T12:30:53;60.06;43.58;72.40;;
67900;Laerm;54700;51.796;10.956;2024-02-04T12:33:20;60.00;44.36;72.07;;
67900;Laerm;54700;51.796;10.956;2024-02-04T12:35:49;60.57;42.37;69.46;;
67900;Laerm;54700;51.796;10.956;2024-02-04T12:38:16;60.35;46.39;70.86;;
67900;Laerm;54700;51.796;10.956;2024-02-04T12:40:45;60.00;42.81;71.51;;
67900;Laerm;54700;51.796;10.956;2024-02-04T12:43:13;60.41;40.39;76.87;;
67900;Laerm;54700;51.796;10.956;2024-02-04T12:45:41;58.54;41.98;71.70;;
67900;Laerm;54700;51.796;10.956;2024-02-04T12:48:09;58.62;41.15;68.67;;
67900;Laerm;54700;51.796;10.956;2024-02-04T12:50:37;57.65;41.73;69.78;;
67900;Laerm;54700;51.796;10.956;2024-02-04T12:53:05;61.38;44.70;72.37;;
67900;Laerm;54700;51.796;10.956;2024-02-04T12:55:33;60.81;42.95;71.83;;
67900;Laerm;54700;51.796;10.956;2024-02-04T12:58:04;62.83;44.11;72.49;;
67900;Laerm;54700;51.796;10.956;2024-02-04T13:00:33;57.55;42.08;72.56;;
67900;Laerm;54700;51.796;10.956;2024-02-04T13:03:00;60.36;43.18;70.31;;
67900;Laerm;54700;51.796;10.956;2024-02-04T13:05:27;59.61;45.11;71.05;;
67900;Laerm;54700;51.796;10.956;2024-02-04T13:07:57;59.14;43.17;69.33;;
67900;Laerm;54700;51.796;10.956;2024-02-04T13:10:26;61.15;44.19;76.69;;
67900;Laerm;54700;51.796;10.956;2024-02-04T13:13:00;56.75;43.78;72.63;;
67900;Laerm;54700;51.796;10.956;2024-02-04T13:15:28;59.48;43.27;71.37;;
67900;Laerm;54700;51.796;10.956;2024-02-04T13:17:56;59.85;46.80;71.39;;
67900;Laerm;54700;51.796;10.956;2024-02-04T13:20:24;59.34;44.07;69.05;;
67900;Laerm;54700;51.796;10.956;2024-02-04T13:22:51;62.95;49.46;72.40;;
67900;Laerm;54700;51.796;10.956;2024-02-04T13:25:20;60.66;43.18;71.98;;
67900;Laerm;54700;51.796;10.956;2024-02-04T13:27:47;55.65;40.21;67.71;;
67900;Laerm;54700;51.796;10.956;2024-02-04T13:30:15;59.61;41.04;70.57;;
67900;Laerm;54700;51.796;10.956;2024-02-04T13:32:42;62.04;41.58;77.54;;
67900;Laerm;54700;51.796;10.956;2024-02-04T13:35:10;62.78;46.56;72.25;;